sensor_id;sensor_type;location;lat;lon;timestamp;pressure;altitude;pressure_sealevel;temperature;humidity
74422;BME280;62856;51.446;8.360;2022-08-11T15:10:02;98380.38;;;25.89;34.38
74422;BME280;62856;51.446;8.360;2022-08-11T15:12:30;98358.19;;;25.82;34.92
74422;BME280;62856;51.446;8.360;2022-08-11T15:14:56;98365.75;;;25.88;34.61
74422;BME280;62856;51.446;8.360;2022-08-11T15:17:41;98371.75;;;25.94;34.93
74422;BME280;62856;51.446;8.360;2022-08-11T15:20:14;98378.84;;;25.95;34.93
74422;BME280;62856;51.446;8.360;2022-08-11T15:25:33;98369.56;;;28.06;28.18
74422;BME280;62856;51.446;8.360;2022-08-11T15:28:00;98351.97;;;27.67;27.25
74422;BME280;62856;51.446;8.360;2022-08-11T15:30:46;98326.97;;;27.53;28.04
74422;BME280;62856;51.446;8.360;2022-08-11T15:33:35;98345.19;;;27.57;27.83
74422;BME280;62856;51.446;8.360;2022-08-11T15:36:21;98340.41;;;27.51;27.67
74422;BME280;62856;51.446;8.360;2022-08-11T15:39:18;98361.41;;;27.59;27.95
74422;BME280;62856;51.446;8.360;2022-08-11T15:41:57;98340.72;;;27.39;28.18
74422;BME280;62856;51.446;8.360;2022-08-11T15:44:48;98346.28;;;27.42;26.61
74422;BME280;62856;51.446;8.360;2022-08-11T15:48:01;98359.06;;;27.61;28.71
74422;BME280;62856;51.446;8.360;2022-08-11T15:50:29;98338.38;;;27.41;27.04
74422;BME280;62856;51.446;8.360;2022-08-11T15:53:02;98333.59;;;27.34;27.14
74422;BME280;62856;51.446;8.360;2022-08-11T15:55:30;98349.50;;;27.51;27.78
74422;BME280;62856;51.446;8.360;2022-08-11T15:57:58;98359.13;;;27.75;29.35
74422;BME280;62856;51.446;8.360;2022-08-11T16:00:46;98336.47;;;27.59;28.59
74422;BME280;62856;51.446;8.360;2022-08-11T16:03:55;98351.13;;;27.56;28.36
74422;BME280;62856;51.446;8.360;2022-08-11T16:06:41;98345.47;;;27.35;27.29
74422;BME280;62856;51.446;8.360;2022-08-11T16:09:09;98341.88;;;27.31;27.17
74422;BME280;62856;51.446;8.360;2022-08-11T16:11:36;98340.31;;;27.33;28.83
74422;BME280;62856;51.446;8.360;2022-08-11T16:14:04;98320.03;;;27.25;28.14
74422;BME280;62856;51.446;8.360;2022-08-11T16:16:50;98334.00;;;27.33;27.30
74422;BME280;62856;51.446;8.360;2022-08-11T16:19:18;98341.13;;;27.41;28.08
74422;BME280;62856;51.446;8.360;2022-08-11T16:21:44;98330.81;;;27.31;27.84
74422;BME280;62856;51.446;8.360;2022-08-11T16:24:14;98331.53;;;27.27;28.62
74422;BME280;62856;51.446;8.360;2022-08-11T16:26:42;98315.31;;;27.26;28.21
74422;BME280;62856;51.446;8.360;2022-08-11T16:29:09;98317.66;;;27.20;28.52
74422;BME280;62856;51.446;8.360;2022-08-11T16:31:36;98331.94;;;27.30;28.47
74422;BME280;62856;51.446;8.360;2022-08-11T16:34:02;98315.66;;;27.14;28.09
74422;BME280;62856;51.446;8.360;2022-08-11T16:36:29;98323.16;;;27.13;28.56
74422;BME280;62856;51.446;8.360;2022-08-11T16:39:15;98311.19;;;26.99;28.90
74422;BME280;62856;51.446;8.360;2022-08-11T16:41:42;98315.94;;;27.02;28.54
74422;BME280;62856;51.446;8.360;2022-08-11T16:44:43;98294.94;;;26.90;28.99
74422;BME280;62856;51.446;8.360;2022-08-11T16:47:27;98314.38;;;27.04;28.48
74422;BME280;62856;51.446;8.360;2022-08-11T16:49:54;98296.47;;;26.88;28.82
74422;BME280;62856;51.446;8.360;2022-08-11T16:52:21;98319.88;;;26.97;28.50
74422;BME280;62856;51.446;8.360;2022-08-11T16:54:47;98296.88;;;26.86;29.63
74422;BME280;62856;51.446;8.360;2022-08-11T16:57:23;98309.94;;;26.89;28.07
74422;BME280;62856;51.446;8.360;2022-08-11T17:00:12;98304.31;;;26.79;28.55
74422;BME280;62856;51.446;8.360;2022-08-11T17:02:43;98313.41;;;26.76;29.10
74422;BME280;62856;51.446;8.360;2022-08-11T17:05:32;98312.56;;;26.72;29.21
74422;BME280;62856;51.446;8.360;2022-08-11T17:08:24;98313.38;;;26.72;31.02
74422;BME280;62856;51.446;8.360;2022-08-11T17:11:09;98300.63;;;26.64;29.28
74422;BME280;62856;51.446;8.360;2022-08-11T17:13:59;98305.31;;;26.60;30.96
74422;BME280;62856;51.446;8.360;2022-08-11T17:16:37;98295.00;;;26.54;31.06
74422;BME280;62856;51.446;8.360;2022-08-11T17:19:13;98299.28;;;26.48;31.09
74422;BME280;62856;51.446;8.360;2022-08-11T17:21:46;98312.81;;;26.56;30.04
74422;BME280;62856;51.446;8.360;2022-08-11T17:24:35;98309.94;;;26.46;31.44
74422;BME280;62856;51.446;8.360;2022-08-11T17:27:02;98282.13;;;26.28;30.24
74422;BME280;62856;51.446;8.360;2022-08-11T17:29:45;98300.03;;;26.41;29.38
74422;BME280;62856;51.446;8.360;2022-08-11T17:32:15;98275.78;;;26.24;30.50
74422;BME280;62856;51.446;8.360;2022-08-11T17:35:15;98265.00;;;26.12;29.69
74422;BME280;62856;51.446;8.360;2022-08-11T17:38:07;98299.84;;;26.20;30.95
74422;BME280;62856;51.446;8.360;2022-08-11T17:40:40;98282.22;;;26.02;31.22
74422;BME280;62856;51.446;8.360;2022-08-11T17:43:27;98298.91;;;26.05;31.40
74422;BME280;62856;51.446;8.360;2022-08-11T17:46:13;98299.53;;;25.95;32.00
74422;BME280;62856;51.446;8.360;2022-08-11T17:48:58;98285.44;;;25.67;31.79
74422;BME280;62856;51.446;8.360;2022-08-11T17:51:24;98271.03;;;25.55;32.27
74422;BME280;62856;51.446;8.360;2022-08-11T17:54:09;98297.41;;;25.49;32.46
74422;BME280;62856;51.446;8.360;2022-08-11T17:56:53;98304.19;;;25.55;31.60
74422;BME280;62856;51.446;8.360;2022-08-11T17:59:39;98288.28;;;25.45;32.09
74422;BME280;62856;51.446;8.360;2022-08-11T18:02:25;98304.47;;;25.46;32.46
74422;BME280;62856;51.446;8.360;2022-08-11T18:05:13;98295.94;;;25.28;32.37
74422;BME280;62856;51.446;8.360;2022-08-11T18:07:50;98289.06;;;25.15;32.79
74422;BME280;62856;51.446;8.360;2022-08-11T18:10:36;98295.41;;;25.19;32.55
74422;BME280;62856;51.446;8.360;2022-08-11T18:13:23;98288.16;;;25.08;32.72
74422;BME280;62856;51.446;8.360;2022-08-11T18:16:08;98303.06;;;25.03;32.75
74422;BME280;62856;51.446;8.360;2022-08-11T18:18:53;98305.78;;;25.00;33.20
74422;BME280;62856;51.446;8.360;2022-08-11T18:21:38;98295.66;;;24.81;33.37
74422;BME280;62856;51.446;8.360;2022-08-11T18:24:25;98304.59;;;24.75;33.10
74422;BME280;62856;51.446;8.360;2022-08-11T18:27:13;98293.25;;;24.57;34.46
74422;BME280;62856;51.446;8.360;2022-08-11T18:30:00;98293.09;;;24.47;34.01
74422;BME280;62856;51.446;8.360;2022-08-11T18:32:47;98291.38;;;24.39;34.88
74422;BME280;62856;51.446;8.360;2022-08-11T18:35:34;98312.56;;;24.35;35.36
74422;BME280;62856;51.446;8.360;2022-08-11T18:38:20;98318.19;;;24.19;35.40
74422;BME280;62856;51.446;8.360;2022-08-11T18:41:06;98316.81;;;24.09;34.80
74422;BME280;62856;51.446;8.360;2022-08-11T18:43:54;98296.31;;;23.88;37.07
74422;BME280;62856;51.446;8.360;2022-08-11T18:46:42;98317.72;;;23.75;39.82
74422;BME280;62856;51.446;8.360;2022-08-11T18:49:31;98327.34;;;23.47;40.94
74422;BME280;62856;51.446;8.360;2022-08-11T18:52:17;98315.75;;;22.87;41.48
74422;BME280;62856;51.446;8.360;2022-08-11T18:55:07;98318.78;;;22.20;41.40
74422;BME280;62856;51.446;8.360;2022-08-11T18:57:53;98321.94;;;21.79;43.90
74422;BME280;62856;51.446;8.360;2022-08-11T19:00:43;98325.72;;;21.74;42.77
74422;BME280;62856;51.446;8.360;2022-08-11T19:03:29;98327.31;;;21.75;43.04
74422;BME280;62856;51.446;8.360;2022-08-11T19:06:17;98321.03;;;21.75;42.04
74422;BME280;62856;51.446;8.360;2022-08-11T19:09:05;98321.63;;;21.68;44.84
74422;BME280;62856;51.446;8.360;2022-08-11T19:11:51;98321.06;;;21.35;44.21
74422;BME280;62856;51.446;8.360;2022-08-11T19:14:37;98348.13;;;21.37;44.74
74422;BME280;62856;51.446;8.360;2022-08-11T19:17:23;98350.19;;;21.27;44.58
74422;BME280;62856;51.446;8.360;2022-08-11T19:20:12;98332.66;;;21.04;45.07
74422;BME280;62856;51.446;8.360;2022-08-11T19:22:58;98349.09;;;21.04;45.39
74422;BME280;62856;51.446;8.360;2022-08-11T19:25:44;98350.94;;;21.00;46.07
74422;BME280;62856;51.446;8.360;2022-08-11T19:28:28;98354.22;;;20.94;47.52
74422;BME280;62856;51.446;8.360;2022-08-11T19:31:13;98339.28;;;20.79;47.25
74422;BME280;62856;51.446;8.360;2022-08-11T19:33:58;98360.03;;;20.80;48.75
74422;BME280;62856;51.446;8.360;2022-08-11T19:36:43;98355.25;;;20.65;48.75
74422;BME280;62856;51.446;8.360;2022-08-11T19:39:28;98359.25;;;20.56;49.42
74422;BME280;62856;51.446;8.360;2022-08-11T19:42:14;98355.47;;;20.48;49.79
74422;BME280;62856;51.446;8.360;2022-08-11T19:44:59;98362.06;;;20.35;50.83
74422;BME280;62856;51.446;8.360;2022-08-11T19:47:46;98352.63;;;20.12;49.55
74422;BME280;62856;51.446;8.360;2022-08-11T19:50:34;98365.50;;;20.11;49.73
74422;BME280;62856;51.446;8.360;2022-08-11T19:53:19;98363.97;;;20.02;50.06
74422;BME280;62856;51.446;8.360;2022-08-11T19:56:05;98351.06;;;19.90;50.13
74422;BME280;62856;51.446;8.360;2022-08-11T19:58:50;98359.94;;;19.87;49.21
74422;BME280;62856;51.446;8.360;2022-08-11T20:01:38;98370.31;;;19.82;50.29
74422;BME280;62856;51.446;8.360;2022-08-11T20:04:23;98362.47;;;19.60;51.27
74422;BME280;62856;51.446;8.360;2022-08-11T20:07:07;98370.59;;;19.48;50.96
74422;BME280;62856;51.446;8.360;2022-08-11T20:09:54;98343.22;;;19.27;52.04
74422;BME280;62856;51.446;8.360;2022-08-11T20:12:41;98361.56;;;19.26;51.64
74422;BME280;62856;51.446;8.360;2022-08-11T20:15:25;98374.81;;;19.16;52.07
74422;BME280;62856;51.446;8.360;2022-08-11T20:18:11;98379.66;;;19.10;52.62
74422;BME280;62856;51.446;8.360;2022-08-11T20:23:59;98380.63;;;18.85;53.17
74422;BME280;62856;51.446;8.360;2022-08-11T20:26:44;98379.81;;;18.85;53.67
74422;BME280;62856;51.446;8.360;2022-08-11T20:29:30;98379.13;;;18.59;53.99
74422;BME280;62856;51.446;8.360;2022-08-11T20:32:16;98386.88;;;18.48;55.20
74422;BME280;62856;51.446;8.360;2022-08-11T20:35:02;98387.88;;;18.26;54.78
74422;BME280;62856;51.446;8.360;2022-08-11T20:37:47;98374.56;;;18.16;55.38
74422;BME280;62856;51.446;8.360;2022-08-11T20:40:33;98376.22;;;18.09;55.10
74422;BME280;62856;51.446;8.360;2022-08-11T20:43:18;98390.47;;;18.14;55.66
74422;BME280;62856;51.446;8.360;2022-08-11T20:46:04;98389.84;;;18.09;56.31
74422;BME280;62856;51.446;8.360;2022-08-11T20:48:51;98379.13;;;17.87;56.69
74422;BME280;62856;51.446;8.360;2022-08-11T20:51:37;98372.56;;;17.79;56.94
74422;BME280;62856;51.446;8.360;2022-08-11T20:54:22;98382.19;;;17.68;57.70
74422;BME280;62856;51.446;8.360;2022-08-11T20:57:09;98370.81;;;17.58;58.33
74422;BME280;62856;51.446;8.360;2022-08-11T20:59:53;98379.31;;;17.56;58.69
74422;BME280;62856;51.446;8.360;2022-08-11T21:02:38;98380.09;;;17.48;58.66
74422;BME280;62856;51.446;8.360;2022-08-11T21:05:23;98372.03;;;17.34;58.66
74422;BME280;62856;51.446;8.360;2022-08-11T21:08:08;98391.59;;;17.36;58.75
74422;BME280;62856;51.446;8.360;2022-08-11T21:10:53;98384.72;;;17.30;58.94
74422;BME280;62856;51.446;8.360;2022-08-11T21:13:39;98384.22;;;17.28;59.00
74422;BME280;62856;51.446;8.360;2022-08-11T21:16:29;98396.22;;;17.19;58.92
74422;BME280;62856;51.446;8.360;2022-08-11T21:19:20;98385.63;;;17.09;58.87
74422;BME280;62856;51.446;8.360;2022-08-11T21:22:05;98396.38;;;17.05;59.43
74422;BME280;62856;51.446;8.360;2022-08-11T21:24:51;98390.56;;;16.98;60.08
74422;BME280;62856;51.446;8.360;2022-08-11T21:27:39;98377.75;;;16.90;60.87
74422;BME280;62856;51.446;8.360;2022-08-11T21:30:27;98377.56;;;16.87;60.42
74422;BME280;62856;51.446;8.360;2022-08-11T21:33:12;98393.25;;;16.90;61.02
74422;BME280;62856;51.446;8.360;2022-08-11T21:35:58;98398.38;;;16.91;60.81
74422;BME280;62856;51.446;8.360;2022-08-11T21:38:42;98382.03;;;16.83;60.75
74422;BME280;62856;51.446;8.360;2022-08-11T21:41:27;98380.41;;;16.73;60.92
74422;BME280;62856;51.446;8.360;2022-08-11T21:44:12;98386.00;;;16.68;60.90
74422;BME280;62856;51.446;8.360;2022-08-11T21:46:57;98367.66;;;16.52;61.27
74422;BME280;62856;51.446;8.360;2022-08-11T21:49:42;98395.53;;;16.57;61.34
74422;BME280;62856;51.446;8.360;2022-08-11T21:52:27;98392.34;;;16.55;61.57
74422;BME280;62856;51.446;8.360;2022-08-11T21:55:11;98395.06;;;16.55;61.95
74422;BME280;62856;51.446;8.360;2022-08-11T21:57:57;98394.06;;;16.51;61.33
74422;BME280;62856;51.446;8.360;2022-08-11T22:00:42;98396.78;;;16.51;61.95
74422;BME280;62856;51.446;8.360;2022-08-11T22:03:27;98390.13;;;16.35;61.84
74422;BME280;62856;51.446;8.360;2022-08-11T22:06:11;98390.63;;;16.37;62.21
74422;BME280;62856;51.446;8.360;2022-08-11T22:08:55;98395.44;;;16.40;62.39
74422;BME280;62856;51.446;8.360;2022-08-11T22:11:39;98378.25;;;16.31;62.47
74422;BME280;62856;51.446;8.360;2022-08-11T22:14:23;98405.72;;;16.43;63.29
74422;BME280;62856;51.446;8.360;2022-08-11T22:17:07;98400.19;;;16.34;62.58
74422;BME280;62856;51.446;8.360;2022-08-11T22:19:52;98404.38;;;16.32;62.50
74422;BME280;62856;51.446;8.360;2022-08-11T22:22:37;98405.59;;;16.26;62.37
74422;BME280;62856;51.446;8.360;2022-08-11T22:25:22;98408.16;;;16.22;61.98
74422;BME280;62856;51.446;8.360;2022-08-11T22:28:07;98405.75;;;16.21;62.81
74422;BME280;62856;51.446;8.360;2022-08-11T22:30:51;98384.81;;;15.99;62.28
74422;BME280;62856;51.446;8.360;2022-08-11T22:33:35;98402.00;;;16.08;63.35
74422;BME280;62856;51.446;8.360;2022-08-11T22:36:22;98390.84;;;15.96;63.32
74422;BME280;62856;51.446;8.360;2022-08-11T22:39:08;98393.38;;;15.93;63.17
74422;BME280;62856;51.446;8.360;2022-08-11T22:41:53;98409.09;;;15.96;64.14
74422;BME280;62856;51.446;8.360;2022-08-11T22:44:37;98391.94;;;15.87;64.23
74422;BME280;62856;51.446;8.360;2022-08-11T22:47:22;98395.56;;;15.82;63.19
74422;BME280;62856;51.446;8.360;2022-08-11T22:50:09;98400.94;;;15.74;62.68
74422;BME280;62856;51.446;8.360;2022-08-11T22:52:55;98397.09;;;15.75;63.13
74422;BME280;62856;51.446;8.360;2022-08-11T22:55:40;98404.97;;;15.76;62.86
74422;BME280;62856;51.446;8.360;2022-08-11T22:58:25;98402.53;;;15.75;63.66
74422;BME280;62856;51.446;8.360;2022-08-11T23:01:13;98369.81;;;15.58;63.30
74422;BME280;62856;51.446;8.360;2022-08-11T23:04:00;98398.72;;;15.76;63.59
74422;BME280;62856;51.446;8.360;2022-08-11T23:06:45;98386.47;;;15.65;64.06
74422;BME280;62856;51.446;8.360;2022-08-11T23:09:30;98391.16;;;15.73;63.46
74422;BME280;62856;51.446;8.360;2022-08-11T23:12:16;98389.69;;;15.67;64.72
74422;BME280;62856;51.446;8.360;2022-08-11T23:15:01;98385.41;;;15.52;63.41
74422;BME280;62856;51.446;8.360;2022-08-11T23:17:47;98391.47;;;15.35;63.39
74422;BME280;62856;51.446;8.360;2022-08-11T23:20:31;98390.66;;;15.35;63.62
74422;BME280;62856;51.446;8.360;2022-08-11T23:23:16;98390.28;;;15.42;63.54
74422;BME280;62856;51.446;8.360;2022-08-11T23:26:00;98392.69;;;15.43;63.41
74422;BME280;62856;51.446;8.360;2022-08-11T23:28:46;98382.66;;;15.44;64.23
74422;BME280;62856;51.446;8.360;2022-08-11T23:31:31;98381.59;;;15.40;63.41
74422;BME280;62856;51.446;8.360;2022-08-11T23:34:24;98375.38;;;15.39;63.87
74422;BME280;62856;51.446;8.360;2022-08-11T23:37:09;98389.75;;;15.40;64.93
74422;BME280;62856;51.446;8.360;2022-08-11T23:39:54;98371.69;;;15.21;64.45
74422;BME280;62856;51.446;8.360;2022-08-11T23:42:39;98397.13;;;15.25;64.05
74422;BME280;62856;51.446;8.360;2022-08-11T23:45:24;98392.94;;;15.19;65.40
74422;BME280;62856;51.446;8.360;2022-08-11T23:48:09;98391.72;;;15.12;65.07
74422;BME280;62856;51.446;8.360;2022-08-11T23:50:55;98374.25;;;15.04;64.83
74422;BME280;62856;51.446;8.360;2022-08-11T23:53:42;98376.44;;;15.02;64.29
74422;BME280;62856;51.446;8.360;2022-08-11T23:56:27;98363.50;;;14.99;64.57
74422;BME280;62856;51.446;8.360;2022-08-11T23:59:13;98350.44;;;14.88;64.74
